Latest Weather Observations for Yunta

IDS60801

Issued at 11:35 pm CST Wednesday 1 October 2014 (issued every 30 minutes, with the page automatically refreshed every 10 minutes)

About weather observations | Map of weather stations | Latest weather observations for SA | Other Formats
Station Details ID: 020062 Name: YUNTA AIRSTRIP Lat: -32.57 Lon: 139.56 Height: 300.0 m
Data from the previous 72 hours. | See also: Recent months at Yunta
Date/Time
CST
Temp
°C
App
Temp
°C
Dew
Point
Rel
Hum
%
Delta-T
°C
Wind Press
QNH
hPa
Press
MSL
hPa
Rain
since 9 am
mm
Dir
 
Spd
km/h
Gust
km/h
Spd
kts
Gust
kts
01/11:30pm 13.0 8.1 2.3 48 4.7 SSE 17 24 9 13 1026.3 1025.7 0.0
01/11:00pm 12.9 9.1 1.6 46 4.9 SSE 11 15 6 8 1026.3 1025.7 0.0
01/10:30pm 13.6 9.0 1.6 44 5.2 SSE 15 19 8 10 1026.3 1025.7 0.0
01/10:00pm 14.0 9.4 1.3 42 5.6 S 15 20 8 11 1026.3 1025.7 0.0
01/09:30pm 13.5 9.2 0.9 42 5.4 S 13 19 7 10 1026.1 1025.5 0.0
01/09:00pm 13.2 9.3 0.9 43 5.3 S 11 13 6 7 1026.3 1025.7 0.0
01/08:30pm 13.2 9.6 0.6 42 5.4 S 9 9 5 5 1026.1 1025.5 0.0
01/08:00pm 14.1 10.5 0.4 39 5.9 S 9 13 5 7 1025.8 1025.3 0.0
01/07:30pm 15.0 11.0 0.4 37 6.3 S 11 13 6 7 1025.5 1025.0 0.0
01/07:00pm 15.7 11.7 0.3 35 6.7 S 11 15 6 8 1025.2 1024.7 0.0
01/06:30pm 16.4 12.0 0.5 34 7.0 S 13 19 7 10 1024.9 1024.4 0.0
01/06:00pm 17.1 12.3 0.3 32 7.4 S 15 20 8 11 1024.7 1024.2 0.0
01/05:30pm 17.9 13.1 0.1 30 7.8 S 15 26 8 14 1024.5 1024.0 0.0
01/05:00pm 18.6 13.4 0.2 29 8.2 S 17 24 9 13 1024.3 1023.8 0.0
01/04:30pm 19.0 13.5 0.6 29 8.2 SSE 19 26 10 14 1024.2 1023.6 0.0
01/04:00pm 19.5 14.0 0.5 28 8.6 S 19 26 10 14 1024.3 1023.8 0.0
01/03:30pm 18.9 13.7 0.0 28 8.4 SSE 17 35 9 19 1024.2 1023.6 0.0
01/03:00pm 18.8 13.5 -0.6 27 8.5 SSE 17 26 9 14 1024.3 1023.8 0.0
01/02:30pm 19.0 13.9 0.6 29 8.2 SSE 17 24 9 13 1024.5 1024.0 0.0
01/02:00pm 18.5 14.1 0.6 30 8.0 S 13 20 7 11 1024.8 1024.3 0.0
01/01:30pm 18.1 13.4 0.7 31 7.8 SSE 15 33 8 18 1025.2 1024.7 0.0
01/01:00pm 17.7 13.0 0.8 32 7.6 SSE 15 28 8 15 1025.4 1024.9 0.0
01/12:30pm 17.9 13.3 1.4 33 7.4 SE 15 28 8 15 1025.7 1025.2 0.0
01/12:00pm 16.8 12.2 1.3 35 6.9 SSE 15 24 8 13 1026.2 1025.6 0.0
01/11:30am 15.7 10.7 1.4 38 6.3 SSE 17 30 9 16 1026.4 1025.8 0.0
01/11:00am 15.6 10.1 1.7 39 6.2 SSE 20 30 11 16 1026.6 1026.0 0.0
01/10:30am 15.4 10.0 2.6 42 5.8 S 20 32 11 17 1026.8 1026.2 0.0
01/10:00am 14.5 9.1 2.4 44 5.4 SSE 20 32 11 17 1026.9 1026.3 0.0
01/09:30am 13.9 7.8 2.5 46 5.1 SSE 24 33 13 18 1026.9 1026.3 0.0
01/09:00am 13.5 7.5 3.3 50 4.6 SSE 24 33 13 18 1026.8 1026.5 0.0
01/08:30am 12.8 6.4 3.2 52 4.3 SSE 26 35 14 19 1026.6 1026.3 0.0
01/08:00am 12.1 6.5 3.6 56 3.8 SSE 22 32 12 17 1026.5 1026.2 0.0
01/07:30am 11.1 6.0 4.1 62 3.2 SSE 20 28 11 15 1026.1 1025.8 0.0
01/07:00am 9.4 5.4 4.8 73 2.1 S 15 19 8 10 1025.8 1025.6 0.0
01/06:30am 7.8 5.5 4.6 80 1.4 S 6 9 3 5 1025.5 1025.3 0.0
01/06:00am 6.5 3.9 4.2 85 1.0 S 7 9 4 5 1025.2 1025.0 0.0
01/05:30am 6.6 4.0 4.1 84 1.1 S 7 9 4 5 1024.6 1024.4 0.0
01/05:00am 7.2 4.7 4.5 83 1.2 SSW 7 11 4 6 1024.1 1023.8 0.0
01/04:30am 8.0 5.5 4.8 80 1.4 S 7 11 4 6 1023.8 1023.5 0.0
01/04:00am 8.9 5.4 5.5 79 1.6 S 13 17 7 9 1023.3 1023.0 0.0
01/03:30am 9.2 6.1 5.4 77 1.7 S 11 19 6 10 1023.0 1022.7 0.0
01/03:00am 9.4 5.8 5.2 75 1.9 S 13 17 7 9 1022.9 1022.6 0.0
01/02:30am 9.3 6.1 5.1 75 1.9 SSW 11 15 6 8 1022.8 1022.5 0.0
01/02:00am 9.1 6.6 4.5 73 2.1 S 7 13 4 7 1022.8 1022.5 0.0
01/01:30am 8.4 5.0 3.8 73 2.0 SSW 11 13 6 7 1022.7 1022.4 0.0
01/01:00am 8.7 5.6 3.5 70 2.3 SW 9 11 5 6 1022.5 1022.2 0.0
01/12:30am 9.5 6.8 3.9 68 2.5 SSW 7 9 4 5 1022.5 1022.2 0.0
01/12:00am 10.6 6.8 3.9 63 3.0 SSW 13 17 7 9 1022.3 1022.1 0.0
 
Date/Time
CST
Temp
°C
App
Temp
°C
Dew
Point
Rel
Hum
%
Delta-T
°C
Wind Press
QNH
hPa
Press
MSL
hPa
Rain
since 9 am
mm
Dir
 
Spd
km/h
Gust
km/h
Spd
kts
Gust
kts
30/11:30pm 11.1 7.7 3.9 61 3.2 SSW 11 15 6 8 1022.0 1021.8 0.0
30/11:00pm 12.1 8.7 4.1 58 3.7 SSW 11 15 6 8 1021.8 1021.6 0.0
30/10:30pm 12.9 9.6 4.3 56 4.0 SSW 11 20 6 11 1021.9 1021.7 0.0
30/10:00pm 13.6 8.9 5.3 57 3.9 SSW 19 28 10 15 1021.5 1021.3 0.0
30/09:30pm 14.4 9.9 7.0 61 3.7 SSW 20 35 11 19 1021.4 1021.1 0.0
30/09:00pm 15.0 10.0 6.6 57 4.1 SW 22 32 12 17 1020.9 1020.6 0.0
30/08:30pm 15.9 10.9 6.3 53 4.7 SW 22 30 12 16 1020.5 1020.2 0.0
30/08:00pm 17.0 11.5 7.6 54 4.8 SW 26 37 14 20 1019.7 1019.4 0.0
30/07:30pm 18.1 13.1 6.6 47 5.8 SW 22 30 12 16 1018.7 1018.5 0.0
30/07:00pm 19.2 13.6 5.3 40 6.9 SW 24 33 13 18 1018.0 1017.7 0.0
30/06:30pm 20.3 14.3 5.5 38 7.4 SW 26 39 14 21 1017.1 1016.8 0.0
30/06:00pm 22.0 15.5 4.6 32 8.7 SW 28 41 15 22 1016.4 1016.1 0.0
30/05:30pm 23.6 15.5 3.0 26 10.1 W 35 48 19 26 1015.8 1015.4 0.0
30/05:00pm 24.6 15.9 2.1 23 10.9 WSW 37 50 20 27 1015.3 1015.0 0.0
30/04:30pm 25.4 16.4 2.2 22 11.3 WSW 39 52 21 28 1014.8 1014.5 0.0
30/04:00pm 26.4 18.1 2.3 21 11.9 W 35 48 19 26 1014.4 1014.1 0.0
30/03:51pm 26.1 17.0 2.1 21 11.7 WSW 39 48 21 26 1014.4 1014.1 0.0
30/03:30pm 26.6 16.3 0.4 18 12.5 W 44 59 24 32 1014.3 1014.0 0.0
30/03:00pm 26.7 17.4 0.4 18 12.5 W 39 56 21 30 1014.3 1014.0 0.0
30/02:30pm 27.3 17.0 -0.7 16 13.1 W 43 65 23 35 1014.4 1014.1 0.0
30/02:11pm 27.4 18.4 0.2 17 13.0 W 37 56 20 30 1014.4 1014.1 0.0
30/02:00pm 27.3 17.8 -0.7 16 13.1 W 39 56 21 30 1014.3 1014.0 0.0
30/01:30pm 27.5 18.8 -0.5 16 13.2 W 35 48 19 26 1014.4 1014.1 0.0
30/01:00pm 27.8 19.2 0.5 17 13.1 W 35 50 19 27 1014.5 1014.2 0.0
30/12:30pm 27.0 17.7 0.7 18 12.6 W 39 56 21 30 1014.8 1014.5 0.0
30/12:00pm 25.9 17.9 0.5 19 12.0 W 32 52 17 28 1015.2 1014.9 0.0
30/11:58am 26.6 19.1 1.1 19 12.3 W 30 52 16 28 1015.1 1014.8 0.0
30/11:30am 26.0 18.0 0.6 19 12.1 W 32 46 17 25 1015.2 1014.9 0.0
30/11:00am 25.3 19.1 2.1 22 11.3 WNW 24 39 13 21 1015.9 1015.6 0.0
30/10:30am 24.6 19.4 2.7 24 10.7 NW 19 26 10 14 1015.8 1015.4 0.0
30/10:00am 23.3 17.5 2.2 25 10.1 W 22 35 12 19 1016.2 1015.9 0.0
30/09:30am 22.3 17.2 3.9 30 9.1 W 20 30 11 16 1016.6 1016.3 0.0
30/09:00am 21.3 15.8 4.0 32 8.5 SW 22 30 12 16 1016.4 1016.1 0.0
30/08:30am 22.4 17.1 3.0 28 9.4 N 20 26 11 14 1015.6 1015.2 0.0
30/08:00am 20.2 14.7 3.9 34 7.9 N 22 26 12 14 1015.1 1014.8 0.0
30/07:30am 17.4 13.2 3.7 40 6.5 N 15 19 8 10 1014.9 1014.6 0.0
30/07:00am 13.3 9.3 3.1 50 4.6 N 13 20 7 11 1014.7 1014.4 0.0
30/06:30am 12.1 8.6 3.3 55 4.0 N 11 17 6 9 1014.5 1014.2 0.0
30/06:00am 8.3 4.6 2.5 67 2.5 N 11 15 6 8 1014.3 1014.0 0.0
30/05:30am 5.9 3.6 0.3 67 2.2 W 2 4 1 2 1014.3 1014.0 0.0
30/05:00am 7.1 4.0 1.4 67 2.3 N 7 7 4 4 1014.2 1013.9 0.0
30/04:30am 7.5 4.5 1.8 67 2.4 N 7 7 4 4 1014.0 1013.7 0.0
30/04:00am 8.0 5.5 1.6 64 2.7 NNE 4 6 2 3 1014.0 1013.7 0.0
30/03:30am 9.0 6.0 1.7 60 3.1 NNW 7 9 4 5 1014.1 1013.8 0.0
30/03:00am 9.5 6.8 2.4 61 3.1 N 6 7 3 4 1014.4 1014.1 0.0
30/02:30am 9.3 7.2 1.7 59 3.2 N 2 4 1 2 1014.7 1014.4 0.0
30/02:00am 9.5 7.4 1.4 57 3.4 NW 2 4 1 2 1014.9 1014.6 0.0
30/01:30am 11.1 9.1 2.4 55 3.8 SE 2 4 1 2 1015.0 1014.7 0.0
30/01:00am 11.5 9.4 2.0 52 4.1 SW 2 4 1 2 1015.0 1014.7 0.0
30/12:30am 11.4 8.4 1.9 52 4.1 WSW 7 9 4 5 1015.3 1015.0 0.0
30/12:00am 11.6 9.2 2.1 52 4.1 SSE 4 6 2 3 1014.7 1014.4 0.0
 
Date/Time
CST
Temp
°C
App
Temp
°C
Dew
Point
Rel
Hum
%
Delta-T
°C
Wind Press
QNH
hPa
Press
MSL
hPa
Rain
since 9 am
mm
Dir
 
Spd
km/h
Gust
km/h
Spd
kts
Gust
kts
29/11:30pm 12.8 10.8 2.1 48 4.7 NNW 2 6 1 3 1014.7 1014.4 0.0
29/11:00pm 14.2 11.3 2.8 46 5.2 NE 7 9 4 5 1014.8 1014.5 0.0
29/10:30pm 13.8 11.7 1.5 43 5.4 S 2 4 1 2 1014.8 1014.5 0.0
29/10:00pm 15.5 13.8 1.6 39 6.2 CALM 0 4 0 2 1015.2 1014.9 0.0
29/09:30pm 16.9 14.1 1.8 36 6.8 SW 6 9 3 5 1015.1 1014.8 0.0
29/09:00pm 17.5 14.6 1.5 34 7.2 SW 6 7 3 4 1015.2 1014.9 0.0
29/08:30pm 19.0 14.7 1.1 30 8.1 W 13 17 7 9 1014.9 1014.6 0.0
29/08:00pm 19.8 15.9 1.3 29 8.5 WSW 11 15 6 8 1014.5 1014.2 0.0
29/07:30pm 21.3 15.8 0.5 25 9.5 W 19 28 10 15 1013.9 1013.6 0.0
29/07:00pm 20.6 16.6 2.9 31 8.5 WNW 13 19 7 10 1013.5 1013.2 0.0
29/06:30pm 21.5 19.2 2.7 29 9.0 W 4 6 2 3 1013.0 1012.7 0.0
29/06:00pm 23.6 21.3 3.0 26 10.1 W 4 7 2 4 1012.9 1012.5 0.0
29/05:30pm 24.4 20.8 3.1 25 10.5 W 11 15 6 8 1012.8 1012.4 0.0
29/05:00pm 24.8 19.5 2.9 24 10.8 NW 20 24 11 13 1012.7 1012.3 0.0
29/04:30pm 25.1 21.2 1.3 21 11.4 N 11 15 6 8 1012.6 1012.2 0.0
29/04:00pm 25.7 20.0 0.4 19 12.0 NW 20 24 11 13 1012.5 1012.1 0.0
29/03:30pm 25.5 20.2 -0.5 18 12.1 WNW 17 26 9 14 1012.5 1012.1 0.0
29/03:00pm 26.0 21.2 -0.1 18 12.3 NW 15 24 8 13 1012.7 1012.3 0.0
29/02:30pm 25.4 20.8 -1.4 17 12.2 NNW 13 26 7 14 1013.0 1012.7 0.0
29/02:00pm 25.1 21.7 -0.9 18 12.0 NNW 7 20 4 11 1013.3 1013.0 0.0
29/01:30pm 24.1 20.1 0.4 21 11.1 NNW 11 24 6 13 1013.8 1013.5 0.0
29/01:00pm 23.9 20.3 0.9 22 10.8 N 9 20 5 11 1014.1 1013.8 0.0
29/12:30pm 22.7 19.2 3.3 28 9.5 N 11 22 6 12 1014.6 1014.3 0.0
29/12:00pm 21.6 19.0 4.2 32 8.6 N 7 22 4 12 1015.3 1015.0 0.0
29/11:30am 19.8 17.4 4.3 36 7.6 N 6 11 3 6 1015.9 1015.6 0.0
29/11:00am 19.0 16.8 5.1 40 6.9 ENE 6 9 3 5 1016.3 1016.0 0.0
29/10:30am 18.6 16.8 5.5 42 6.5 ENE 4 7 2 4 1016.7 1016.4 0.0
29/10:00am 17.7 15.9 5.6 45 6.0 S 4 9 2 5 1017.1 1016.8 0.0
29/09:30am 16.7 14.5 6.2 50 5.2 S 7 13 4 7 1017.4 1017.1 0.0
29/09:00am 15.9 14.2 5.8 51 4.9 ESE 4 11 2 6 1017.6 1017.3 0.0
29/08:30am 14.5 13.2 5.8 56 4.2 SSW 2 4 1 2 1017.5 1017.2 0.0
29/08:00am 13.8 12.4 5.7 58 3.9 WSW 2 6 1 3 1017.3 1017.0 0.0
29/07:30am 12.5 11.1 5.7 63 3.2 SSW 2 4 1 2 1017.2 1016.9 0.0
29/07:00am 9.9 8.6 4.3 68 2.5 CALM 0 0 0 0 1017.0 1016.7 0.0
29/06:30am 8.3 6.2 3.8 73 2.0 SW 4 7 2 4 1016.3 1016.0 0.0
29/06:00am 7.3 3.7 3.2 75 1.8 SW 11 13 6 7 1016.0 1015.7 0.0
29/05:30am 7.1 4.8 2.6 73 1.9 SSW 4 6 2 3 1015.5 1015.1 0.0
29/05:00am 7.8 6.0 3.3 73 1.9 S 2 6 1 3 1015.0 1014.7 0.0
29/04:30am 8.3 6.8 3.0 69 2.3 CALM 0 0 0 0 1014.9 1014.6 0.0
29/04:00am 9.2 6.6 3.2 66 2.6 S 6 7 3 4 1014.7 1014.4 0.0
29/03:30am 9.9 6.8 3.6 65 2.8 SSW 9 11 5 6 1014.8 1014.5 0.0
29/03:00am 10.5 7.4 3.5 62 3.1 SW 9 13 5 7 1014.9 1014.6 0.0
29/02:30am 10.9 8.2 3.5 60 3.3 SW 7 9 4 5 1015.0 1014.7 0.0
29/02:00am 12.1 8.2 3.6 56 3.8 SW 13 15 7 8 1015.1 1014.8 0.0
29/01:30am 13.2 10.1 3.6 52 4.4 SSW 9 13 5 7 1015.2 1014.9 0.0
29/01:00am 13.6 9.9 4.2 53 4.4 SW 13 19 7 10 1015.3 1015.0 0.0
29/12:30am 14.3 10.5 5.9 57 4.1 SSW 15 20 8 11 1015.5 1015.1 0.0
29/12:00am 15.0 12.0 6.0 55 4.4 SSW 11 17 6 9 1015.3 1015.0 0.0

Other Formats:

Comma delimited format used in spreadsheet applications
http://www.bom.gov.au/fwo/IDS60801/IDS60801.94684.axf

JavaScript Object Notation format (JSON) in row-major order
http://www.bom.gov.au/fwo/IDS60801/IDS60801.94684.json